Terminal Aerodrome Forecast
Issued by NWS

Current Version | Previous Version | Text Only | Print | Product List | Glossary On
Versions: 1 2 3 4 5 6 7 8 9 10 11 12 13
000
FTUS42 KMLB 152300
TAFLEE
TAF
KLEE 152336Z 1600/1624 34004KT P6SM VCSH FEW050 BKN250
     FM160100 VRB03KT P6SM BKN250
     FM161400 28006KT P6SM FEW025 SCT120 BKN250
     FM161800 28008KT P6SM VCTS SCT045CB BKN100=

USA.gov is the U.S. government's official web portal to all federal, state and local government web resources and services.